CheckWX is a tool to help pilots better visualize weather data.  It is not intended as a substitute for an official pre-flight weather briefing.

21:38:59 UTC

EGVN METAR
RAF Brize Norton Airport
Brize Norton, United Kingdom
Current

49 mins ago

EGVN 052050Z 22010KT 9999 BKN015 09/06 Q1012 TEMPO BKN012 RMK WHT TEMPO GRN
Observed
Dec-5 @ 20:50 UTC
Wind
  • 220° at 10 KTS
Visibility
10,000+ meters
Flight Rules
MVFR
Cloud Levels
  • Broken at 1,500' AGL
Temperature
C / 48°F
Dewpoint
C / 43°F
Humidity
82%
Altimeter
29.88" Hg
Pressure
1011.92 hPa
Previous

1 hour ago

EGVN 052020Z 22010KT 9999 BKN016 09/06 Q1012 TEMPO BKN012 RMK WHT TEMPO GRN
Observed
Dec-5 @ 20:20 UTC
Wind
  • 220° at 10 KTS
Visibility
10,000+ meters
Flight Rules
MVFR
Cloud Levels
  • Broken at 1,600' AGL
Temperature
C / 48°F
Dewpoint
C / 43°F
Humidity
82%
Altimeter
29.88" Hg
Pressure
1011.92 hPa
Previous

2 hours ago

EGVN 051950Z 23009KT 9999 BKN019 09/05 Q1013 TEMPO BKN012 RMK WHT TEMPO GRN
Observed
Dec-5 @ 19:50 UTC
Wind
  • 230° at 9 KTS
Visibility
10,000+ meters
Flight Rules
MVFR
Cloud Levels
  • Broken at 1,900' AGL
Temperature
C / 48°F
Dewpoint
C / 41°F
Humidity
76%
Altimeter
29.91" Hg
Pressure
1012.92 hPa